Time;durP1;ratioP1;P1;durP2;ratioP2;P2;SDS_P1;SDS_P2;PMS_P1;PMS_P2;Temp;Humidity;BMP_temperature;BMP_pressure;BME280_temperature;BME280_humidity;BME280_pressure;Samples;Min_cycle;Max_cycle;Signal;HPM_P1;HPM_P2
2020/12/14 00:02:57;;;;;;;3.97;2.37;;;;;;;;;;10564010;28;20218;-71
2020/12/14 00:07:58;;;;;;;6.60;3.47;;;;;;;;;;10566247;28;20558;-71
2020/12/14 00:13:02;;;;;;;4.40;2.13;;;;;;;;;;10555824;28;20212;-70
2020/12/14 00:18:04;;;;;;;8.13;3.77;;;;;;;;;;10553623;28;20571;-71
2020/12/14 00:23:06;;;;;;;8.33;3.87;;;;;;;;;;10556287;28;20299;-71
2020/12/14 00:28:07;;;;;;;6.10;2.83;;;;;;;;;;10563591;28;20218;-70
2020/12/14 00:33:09;;;;;;;9.17;4.93;;;;;;;;;;10557961;28;20663;-71
2020/12/14 00:38:11;;;;;;;5.40;2.73;;;;;;;;;;10562560;28;20221;-70
2020/12/14 00:43:12;;;;;;;4.53;2.00;;;;;;;;;;10564795;28;20318;-69
2020/12/14 00:48:15;;;;;;;8.30;4.20;;;;;;;;;;10562786;28;20202;-71
2020/12/14 00:53:16;;;;;;;9.10;4.33;;;;;;;;;;10549379;28;20254;-70
2020/12/14 00:58:17;;;;;;;4.93;2.17;;;;;;;;;;10562697;28;20238;-72
2020/12/14 01:03:20;;;;;;;7.73;3.57;;;;;;;;;;10556540;28;20222;-71
2020/12/14 01:08:22;;;;;;;8.47;4.60;;;;;;;;;;10557420;28;20232;-70
2020/12/14 01:13:23;;;;;;;8.70;4.57;;;;;;;;;;10560671;28;20694;-72
2020/12/14 01:18:26;;;;;;;10.03;4.63;;;;;;;;;;10555557;28;20211;-70
2020/12/14 01:23:27;;;;;;;6.73;2.60;;;;;;;;;;10542498;28;20215;-71
2020/12/14 01:28:29;;;;;;;8.67;3.97;;;;;;;;;;10557349;28;20279;-70
2020/12/14 01:33:32;;;;;;;9.63;4.40;;;;;;;;;;10563491;28;20227;-71
2020/12/14 01:38:35;;;;;;;8.23;4.43;;;;;;;;;;10552313;28;20230;-72
2020/12/14 01:43:37;;;;;;;8.70;4.40;;;;;;;;;;10557233;28;20599;-71
2020/12/14 01:48:39;;;;;;;8.10;3.77;;;;;;;;;;10555657;28;20198;-70
2020/12/14 01:53:41;;;;;;;7.63;3.90;;;;;;;;;;10543758;28;20219;-70
2020/12/14 01:58:43;;;;;;;9.33;4.27;;;;;;;;;;10557887;28;20229;-70
2020/12/14 02:03:45;;;;;;;4.73;2.30;;;;;;;;;;10563246;28;20236;-70
2020/12/14 02:08:46;;;;;;;8.33;4.47;;;;;;;;;;10557922;28;20200;-68
2020/12/14 02:13:48;;;;;;;8.73;4.00;;;;;;;;;;10552432;28;20230;-71
2020/12/14 02:18:50;;;;;;;5.67;2.90;;;;;;;;;;10550119;28;20222;-71
2020/12/14 02:23:52;;;;;;;9.00;3.70;;;;;;;;;;10562438;28;20268;-69
2020/12/14 02:28:54;;;;;;;11.97;6.30;;;;;;;;;;10552665;28;20337;-69
2020/12/14 02:33:56;;;;;;;9.90;4.53;;;;;;;;;;10549918;28;20226;-68
2020/12/14 02:38:57;;;;;;;14.63;7.80;;;;;;;;;;10562123;28;21110;-72
2020/12/14 02:44:00;;;;;;;14.47;7.50;;;;;;;;;;10561278;28;20221;-70
2020/12/14 02:49:01;;;;;;;16.83;8.10;;;;;;;;;;10550925;28;20279;-71
2020/12/14 02:54:03;;;;;;;15.90;7.47;;;;;;;;;;10547229;28;20227;-70
2020/12/14 02:59:05;;;;;;;16.97;7.17;;;;;;;;;;10553969;28;20322;-69
2020/12/14 03:04:06;;;;;;;13.90;6.80;;;;;;;;;;10554677;28;20726;-71
2020/12/14 03:09:08;;;;;;;15.20;8.00;;;;;;;;;;10551159;28;20662;-71
2020/12/14 03:14:10;;;;;;;14.00;7.33;;;;;;;;;;10547797;28;20213;-72
2020/12/14 03:19:12;;;;;;;13.13;6.37;;;;;;;;;;10556561;28;20273;-72
2020/12/14 03:24:14;;;;;;;11.43;4.60;;;;;;;;;;10544326;28;20696;-72
2020/12/14 03:29:16;;;;;;;14.50;7.33;;;;;;;;;;10548208;28;20208;-73
2020/12/14 03:34:18;;;;;;;16.20;8.13;;;;;;;;;;10549190;28;20214;-73
2020/12/14 03:39:19;;;;;;;13.53;6.60;;;;;;;;;;10539126;28;20226;-71
2020/12/14 03:44:22;;;;;;;7.80;3.37;;;;;;;;;;10554761;28;20286;-71
2020/12/14 03:49:23;;;;;;;16.00;8.67;;;;;;;;;;10557475;28;20212;-71
2020/12/14 03:54:25;;;;;;;17.47;10.03;;;;;;;;;;10560392;28;20214;-72
2020/12/14 03:59:27;;;;;;;16.80;9.57;;;;;;;;;;10560414;28;20324;-71
2020/12/14 04:04:28;;;;;;;17.80;9.83;;;;;;;;;;10560690;28;20196;-71
2020/12/14 04:09:30;;;;;;;16.03;8.40;;;;;;;;;;10548372;28;20248;-71
2020/12/14 04:14:32;;;;;;;16.87;9.37;;;;;;;;;;10553990;28;20195;-70
2020/12/14 04:19:34;;;;;;;17.90;10.00;;;;;;;;;;10538319;28;20230;-71
2020/12/14 04:24:35;;;;;;;16.97;8.77;;;;;;;;;;10546264;28;20214;-72
2020/12/14 04:29:38;;;;;;;18.27;8.50;;;;;;;;;;10546825;28;20229;-69
2020/12/14 04:34:39;;;;;;;14.43;7.27;;;;;;;;;;10550917;28;20195;-71
2020/12/14 04:39:41;;;;;;;15.57;8.00;;;;;;;;;;10562079;28;20227;-70
2020/12/14 04:44:44;;;;;;;16.43;7.90;;;;;;;;;;10561301;28;20569;-69
2020/12/14 04:49:45;;;;;;;16.53;7.53;;;;;;;;;;10562243;28;20237;-70
2020/12/14 04:54:47;;;;;;;16.20;8.70;;;;;;;;;;10563907;28;20219;-70
2020/12/14 04:59:50;;;;;;;14.07;8.07;;;;;;;;;;10565158;28;20669;-70
2020/12/14 05:04:52;;;;;;;13.17;6.73;;;;;;;;;;10552545;28;20265;-70
2020/12/14 05:10:00;;;;;;;18.20;9.33;;;;;;;;;;10560948;28;20215;-69
2020/12/14 05:15:02;;;;;;;11.70;6.03;;;;;;;;;;10564740;28;20200;-69
2020/12/14 05:20:12;;;;;;;14.23;6.93;;;;;;;;;;10554535;28;20227;-71
2020/12/14 05:25:18;;;;;;;8.40;3.80;;;;;;;;;;10552139;28;20229;-72
2020/12/14 05:30:22;;;;;;;14.37;6.50;;;;;;;;;;10557996;28;20882;-71
2020/12/14 05:35:29;;;;;;;7.27;2.93;;;;;;;;;;10550019;28;20306;-71
2020/12/14 05:40:32;;;;;;;8.27;3.40;;;;;;;;;;10561078;28;20664;-71
2020/12/14 05:45:35;;;;;;;11.73;5.90;;;;;;;;;;10555731;28;20226;-70
2020/12/14 05:50:36;;;;;;;10.47;5.77;;;;;;;;;;10558559;28;20220;-70
2020/12/14 05:55:38;;;;;;;10.37;5.17;;;;;;;;;;10556791;28;20203;-70
2020/12/14 06:00:42;;;;;;;11.13;5.90;;;;;;;;;;10561649;28;20332;-71
2020/12/14 06:05:45;;;;;;;13.67;6.30;;;;;;;;;;10547955;28;20539;-70
2020/12/14 06:10:49;;;;;;;16.67;9.47;;;;;;;;;;10554447;28;20233;-72
2020/12/14 06:15:54;;;;;;;13.17;8.10;;;;;;;;;;10548317;28;20668;-71
2020/12/14 06:20:55;;;;;;;12.10;6.60;;;;;;;;;;10542973;28;20219;-72
2020/12/14 06:25:57;;;;;;;12.77;7.17;;;;;;;;;;10550809;28;20226;-71
2020/12/14 06:30:59;;;;;;;9.73;5.20;;;;;;;;;;10559324;28;20740;-71
2020/12/14 06:36:18;;;;;;;16.93;8.43;;;;;;;;;;10556000;28;20199;-70
2020/12/14 06:41:20;;;;;;;17.03;8.93;;;;;;;;;;10559319;28;20222;-71
2020/12/14 06:46:26;;;;;;;16.83;8.30;;;;;;;;;;10553434;28;20196;-72
2020/12/14 06:51:49;;;;;;;12.60;6.53;;;;;;;;;;10549649;28;20763;-71
2020/12/14 06:56:53;;;;;;;12.83;6.23;;;;;;;;;;10547421;28;20290;-70
2020/12/14 07:02:00;;;;;;;17.97;9.03;;;;;;;;;;10557432;28;20226;-71
2020/12/14 07:07:16;;;;;;;13.20;7.23;;;;;;;;;;10561015;28;20298;-71
2020/12/14 07:12:24;;;;;;;13.40;6.70;;;;;;;;;;10548401;28;20238;-70
2020/12/14 07:17:27;;;;;;;12.27;6.00;;;;;;;;;;10548106;28;20277;-69
2020/12/14 07:22:47;;;;;;;12.50;6.83;;;;;;;;;;10543609;28;20284;-72
2020/12/14 07:27:48;;;;;;;12.30;6.17;;;;;;;;;;10532008;28;20245;-71
2020/12/14 07:32:51;;;;;;;10.20;5.57;;;;;;;;;;10544527;28;20618;-71
2020/12/14 07:37:53;;;;;;;8.27;4.40;;;;;;;;;;10552044;28;20199;-70
2020/12/14 07:42:55;;;;;;;7.93;4.10;;;;;;;;;;10561398;28;20214;-71
2020/12/14 07:47:57;;;;;;;8.00;4.40;;;;;;;;;;10558152;28;20604;-71
2020/12/14 07:53:02;;;;;;;8.13;4.37;;;;;;;;;;10544301;28;20380;-71
2020/12/14 07:58:04;;;;;;;7.33;4.53;;;;;;;;;;10544643;28;20203;-71
2020/12/14 08:03:07;;;;;;;10.63;5.30;;;;;;;;;;10549478;28;20227;-70
2020/12/14 08:08:09;;;;;;;9.43;5.23;;;;;;;;;;10544280;28;20213;-71
2020/12/14 08:13:11;;;;;;;10.10;6.10;;;;;;;;;;10569364;28;20223;-70
2020/12/14 08:18:17;;;;;;;9.73;5.03;;;;;;;;;;10553423;28;20203;-70
2020/12/14 08:23:20;;;;;;;7.33;4.07;;;;;;;;;;10561675;28;20222;-70
2020/12/14 08:28:27;;;;;;;7.60;3.70;;;;;;;;;;10559471;28;20302;-70
2020/12/14 08:33:30;;;;;;;7.60;4.10;;;;;;;;;;10553226;28;20621;-70
2020/12/14 08:38:31;;;;;;;7.77;4.30;;;;;;;;;;10558526;28;20583;-70
2020/12/14 08:43:33;;;;;;;8.17;4.00;;;;;;;;;;10560844;28;20691;-69
2020/12/14 08:48:44;;;;;;;7.97;4.30;;;;;;;;;;10565319;28;20305;-70
2020/12/14 08:53:47;;;;;;;6.97;4.03;;;;;;;;;;10557068;28;20272;-70
2020/12/14 08:58:52;;;;;;;7.90;4.40;;;;;;;;;;10549431;28;20218;-70
2020/12/14 09:03:55;;;;;;;7.57;4.20;;;;;;;;;;10560947;28;20211;-69
2020/12/14 09:08:58;;;;;;;9.07;4.23;;;;;;;;;;10553469;28;20287;-71
2020/12/14 09:14:00;;;;;;;6.60;4.27;;;;;;;;;;10550512;28;20215;-69
2020/12/14 09:19:02;;;;;;;7.70;4.37;;;;;;;;;;10553109;28;20199;-71
2020/12/14 09:24:14;;;;;;;7.23;4.30;;;;;;;;;;10565969;28;20230;-70
2020/12/14 09:29:16;;;;;;;7.45;4.30;;;;;;;;;;10555242;28;20213;-70
2020/12/14 09:34:18;;;;;;;7.40;4.05;;;;;;;;;;10552669;28;20654;-70
2020/12/14 09:39:20;;;;;;;7.60;4.53;;;;;;;;;;10553389;28;20224;-71
2020/12/14 09:44:22;;;;;;;7.57;4.07;;;;;;;;;;10555826;28;20640;-71
2020/12/14 09:49:24;;;;;;;9.35;5.55;;;;;;;;;;10558355;28;20222;-70
2020/12/14 09:54:26;;;;;;;7.80;4.72;;;;;;;;;;10552372;28;20208;-71
2020/12/14 09:59:27;;;;;;;7.57;4.43;;;;;;;;;;10536490;28;20215;-71
2020/12/14 10:04:30;;;;;;;7.35;4.13;;;;;;;;;;10553595;28;20570;-71
2020/12/14 10:09:31;;;;;;;6.18;3.50;;;;;;;;;;10556824;28;20291;-71
2020/12/14 10:14:39;;;;;;;5.28;3.45;;;;;;;;;;10559955;28;20214;-71
2020/12/14 10:19:41;;;;;;;5.97;3.88;;;;;;;;;;10559158;28;20822;-69
2020/12/14 10:24:43;;;;;;;5.15;3.30;;;;;;;;;;10557236;28;20217;-69
2020/12/14 10:29:44;;;;;;;5.28;3.35;;;;;;;;;;10549262;28;20218;-72
2020/12/14 10:34:47;;;;;;;5.80;3.40;;;;;;;;;;10550631;28;20233;-72
2020/12/14 10:39:48;;;;;;;6.03;3.38;;;;;;;;;;10560688;28;20233;-72
2020/12/14 10:44:50;;;;;;;5.25;3.10;;;;;;;;;;10552365;28;20203;-70
2020/12/14 10:49:52;;;;;;;5.57;3.25;;;;;;;;;;10559516;28;20283;-71
2020/12/14 10:54:53;;;;;;;7.20;3.33;;;;;;;;;;10552215;28;20226;-70
2020/12/14 10:59:57;;;;;;;5.78;3.20;;;;;;;;;;10560967;28;20222;-71
2020/12/14 11:04:59;;;;;;;6.60;3.85;;;;;;;;;;10547716;28;20230;-70
2020/12/14 11:10:03;;;;;;;7.18;4.20;;;;;;;;;;10549323;28;20229;-69
2020/12/14 11:15:07;;;;;;;6.95;4.10;;;;;;;;;;10549035;28;20294;-69
2020/12/14 11:20:10;;;;;;;6.22;3.88;;;;;;;;;;10561569;28;20322;-69
2020/12/14 11:25:12;;;;;;;8.88;3.85;;;;;;;;;;10543795;28;20726;-69
2020/12/14 11:30:14;;;;;;;5.68;3.33;;;;;;;;;;10544440;28;20226;-69
2020/12/14 11:35:16;;;;;;;6.03;3.30;;;;;;;;;;10544447;28;20482;-70
2020/12/14 11:40:18;;;;;;;10.20;4.25;;;;;;;;;;10546466;28;20239;-70
2020/12/14 11:45:19;;;;;;;6.43;3.75;;;;;;;;;;10560017;28;20221;-70
2020/12/14 11:50:22;;;;;;;7.20;3.42;;;;;;;;;;10555223;28;20271;-70
2020/12/14 11:55:23;;;;;;;6.65;3.28;;;;;;;;;;10563762;28;20739;-71
2020/12/14 12:00:25;;;;;;;6.57;3.13;;;;;;;;;;10562434;28;20587;-71
2020/12/14 12:05:27;;;;;;;6.30;3.07;;;;;;;;;;10545816;28;20590;-69
2020/12/14 12:10:29;;;;;;;7.93;3.07;;;;;;;;;;10565861;28;20283;-70
2020/12/14 12:15:30;;;;;;;6.50;3.17;;;;;;;;;;10558459;28;20202;-70
2020/12/14 12:20:33;;;;;;;5.83;3.30;;;;;;;;;;10551827;28;20219;-70
2020/12/14 12:25:34;;;;;;;6.03;3.50;;;;;;;;;;10556034;28;20267;-70
2020/12/14 12:30:36;;;;;;;5.53;3.27;;;;;;;;;;10553212;28;20245;-70
2020/12/14 12:35:38;;;;;;;6.90;3.27;;;;;;;;;;10554109;28;20203;-70
2020/12/14 12:40:39;;;;;;;7.00;3.30;;;;;;;;;;10559408;28;20222;-69
2020/12/14 12:45:41;;;;;;;8.40;3.10;;;;;;;;;;10568622;28;20214;-70
2020/12/14 12:50:53;;;;;;;5.47;2.90;;;;;;;;;;10562068;28;20310;-70
2020/12/14 12:55:55;;;;;;;5.33;2.70;;;;;;;;;;10554899;28;20211;-71
2020/12/14 13:00:56;;;;;;;5.70;2.80;;;;;;;;;;10555693;28;20292;-70
2020/12/14 13:06:00;;;;;;;6.07;2.53;;;;;;;;;;10553572;28;20578;-70
2020/12/14 13:11:01;;;;;;;6.03;2.60;;;;;;;;;;10563513;28;20221;-70
2020/12/14 13:16:03;;;;;;;6.13;2.80;;;;;;;;;;10549607;28;20204;-70
2020/12/14 13:21:06;;;;;;;8.77;3.30;;;;;;;;;;10539854;28;20223;-72
2020/12/14 13:26:07;;;;;;;7.60;3.50;;;;;;;;;;10554519;28;20192;-71
2020/12/14 13:31:09;;;;;;;6.87;3.07;;;;;;;;;;10547546;28;20420;-70
2020/12/14 13:36:11;;;;;;;12.47;6.50;;;;;;;;;;10554928;28;20223;-70
2020/12/14 13:41:24;;;;;;;16.97;8.23;;;;;;;;;;10553909;28;20276;-72
2020/12/14 13:46:26;;;;;;;21.87;10.63;;;;;;;;;;10552194;28;20666;-72
2020/12/14 13:51:29;;;;;;;13.93;6.67;;;;;;;;;;10559027;28;20223;-72
2020/12/14 13:56:45;;;;;;;6.20;2.77;;;;;;;;;;10558204;28;20655;-71
2020/12/14 14:01:52;;;;;;;7.30;2.70;;;;;;;;;;10554966;28;20702;-71
2020/12/14 14:07:00;;;;;;;6.37;2.90;;;;;;;;;;10552751;28;20221;-71
2020/12/14 14:12:05;;;;;;;7.13;3.10;;;;;;;;;;10549924;28;20219;-71
2020/12/14 14:17:07;;;;;;;8.80;2.93;;;;;;;;;;10558205;28;20207;-72
2020/12/14 14:22:12;;;;;;;7.53;2.97;;;;;;;;;;10556368;28;20230;-72
2020/12/14 14:27:25;;;;;;;12.17;3.73;;;;;;;;;;10561236;28;20202;-71
2020/12/14 14:32:28;;;;;;;9.27;3.83;;;;;;;;;;10555001;28;20219;-71
2020/12/14 14:37:38;;;;;;;9.20;5.00;;;;;;;;;;10560333;28;20237;-70
2020/12/14 14:42:54;;;;;;;9.77;4.20;;;;;;;;;;10548146;28;20262;-70
2020/12/14 14:48:12;;;;;;;9.13;4.60;;;;;;;;;;10550363;28;20273;-70
2020/12/14 14:53:18;;;;;;;8.27;4.00;;;;;;;;;;10542429;28;20219;-70
2020/12/14 14:58:19;;;;;;;8.70;4.53;;;;;;;;;;10548514;28;20212;-71
2020/12/14 15:03:21;;;;;;;9.67;5.50;;;;;;;;;;10555277;28;20241;-69
2020/12/14 15:08:28;;;;;;;11.77;6.37;;;;;;;;;;10559134;28;20206;-70
2020/12/14 15:13:29;;;;;;;11.93;5.80;;;;;;;;;;10549897;28;20649;-68
2020/12/14 15:18:31;;;;;;;13.17;6.67;;;;;;;;;;10556652;28;20555;-70
2020/12/14 15:23:34;;;;;;;13.90;6.70;;;;;;;;;;10563645;28;20741;-69
2020/12/14 15:28:35;;;;;;;10.93;6.10;;;;;;;;;;10558876;28;20405;-69
2020/12/14 15:33:37;;;;;;;10.33;5.70;;;;;;;;;;10550846;28;20655;-69
2020/12/14 15:38:42;;;;;;;10.90;5.20;;;;;;;;;;10551206;28;20313;-69
2020/12/14 15:43:44;;;;;;;10.77;6.70;;;;;;;;;;10546787;28;20563;-70
2020/12/14 15:48:47;;;;;;;10.93;5.50;;;;;;;;;;10550701;28;20632;-70
2020/12/14 15:53:49;;;;;;;10.80;5.80;;;;;;;;;;10553557;28;20671;-69
2020/12/14 15:58:51;;;;;;;10.30;5.37;;;;;;;;;;10553654;28;20203;-71
2020/12/14 16:03:52;;;;;;;11.53;5.63;;;;;;;;;;10539108;28;20227;-69
2020/12/14 16:09:02;;;;;;;11.27;6.37;;;;;;;;;;10553095;28;20210;-70
2020/12/14 16:14:04;;;;;;;9.87;5.50;;;;;;;;;;10556499;28;20215;-69
2020/12/14 16:19:05;;;;;;;11.50;5.60;;;;;;;;;;10554243;28;20210;-70
2020/12/14 16:24:08;;;;;;;10.73;5.83;;;;;;;;;;10549841;28;20214;-71
2020/12/14 16:29:09;;;;;;;9.03;5.20;;;;;;;;;;10555607;28;20210;-70
2020/12/14 16:34:11;;;;;;;11.23;5.87;;;;;;;;;;10550519;28;20215;-71
2020/12/14 16:39:15;;;;;;;10.30;5.50;;;;;;;;;;10555498;28;20230;-70
2020/12/14 16:44:17;;;;;;;13.57;6.97;;;;;;;;;;10557975;28;20219;-72
2020/12/14 16:49:18;;;;;;;13.50;7.00;;;;;;;;;;10564105;28;20195;-72
2020/12/14 16:54:21;;;;;;;9.73;5.50;;;;;;;;;;10557956;28;20282;-72
2020/12/14 16:59:24;;;;;;;9.97;5.50;;;;;;;;;;10564803;28;20200;-70
2020/12/14 17:04:29;;;;;;;8.97;5.30;;;;;;;;;;10560879;28;20230;-70
2020/12/14 17:09:34;;;;;;;11.87;6.50;;;;;;;;;;10563217;28;20207;-71
2020/12/14 17:14:35;;;;;;;12.80;6.40;;;;;;;;;;10560291;28;20196;-71
2020/12/14 17:19:37;;;;;;;11.00;5.57;;;;;;;;;;10548798;28;20222;-71
2020/12/14 17:24:39;;;;;;;9.57;4.77;;;;;;;;;;10552699;28;20808;-72
2020/12/14 17:29:41;;;;;;;11.80;4.67;;;;;;;;;;10554424;28;20240;-72
2020/12/14 17:34:43;;;;;;;8.97;4.27;;;;;;;;;;10560976;28;20202;-70
2020/12/14 17:39:50;;;;;;;8.80;4.53;;;;;;;;;;10554528;28;20219;-70
2020/12/14 17:44:51;;;;;;;8.30;4.00;;;;;;;;;;10546877;28;20232;-69
2020/12/14 17:49:54;;;;;;;8.23;4.40;;;;;;;;;;10549653;28;20240;-71
2020/12/14 17:54:56;;;;;;;7.73;3.90;;;;;;;;;;10547747;28;20212;-72
2020/12/14 18:00:04;;;;;;;9.57;4.37;;;;;;;;;;10557431;28;20233;-70
2020/12/14 18:05:05;;;;;;;10.10;4.63;;;;;;;;;;10550144;28;20203;-71
2020/12/14 18:10:08;;;;;;;8.67;4.23;;;;;;;;;;10550468;28;20218;-70
2020/12/14 18:15:09;;;;;;;10.77;4.53;;;;;;;;;;10557614;28;20336;-74
2020/12/14 18:20:11;;;;;;;10.53;5.23;;;;;;;;;;10549865;28;20696;-72
2020/12/14 18:25:16;;;;;;;9.67;5.07;;;;;;;;;;10541390;28;20633;-72
2020/12/14 18:30:17;;;;;;;11.03;5.40;;;;;;;;;;10544185;28;20219;-71
2020/12/14 21:27:13;;;;;;;14.47;8.07;;;;;;;;;;10560950;28;20299;-73
2020/12/14 21:32:15;;;;;;;12.43;7.60;;;;;;;;;;10547818;28;20224;-73
2020/12/14 21:37:18;;;;;;;14.63;8.50;;;;;;;;;;10547684;28;20631;-72
2020/12/14 21:42:19;;;;;;;13.97;8.80;;;;;;;;;;10542883;28;20258;-72
2020/12/14 21:47:21;;;;;;;13.07;7.00;;;;;;;;;;10554644;28;20203;-73
2020/12/14 21:52:23;;;;;;;14.90;8.37;;;;;;;;;;10548339;28;20215;-73
2020/12/14 21:57:25;;;;;;;13.40;7.70;;;;;;;;;;10557777;28;20212;-72
2020/12/14 22:02:26;;;;;;;12.00;7.13;;;;;;;;;;10561369;28;20235;-72
2020/12/14 22:07:30;;;;;;;16.60;10.13;;;;;;;;;;10557753;28;20191;-73
2020/12/14 22:12:31;;;;;;;13.80;8.60;;;;;;;;;;10558333;28;20234;-73
2020/12/14 22:17:33;;;;;;;15.13;8.37;;;;;;;;;;10557936;28;20214;-73
2020/12/14 22:22:37;;;;;;;13.70;7.70;;;;;;;;;;10558645;28;20219;-74
2020/12/14 22:27:39;;;;;;;13.97;7.90;;;;;;;;;;10557537;28;20566;-72
2020/12/14 22:32:41;;;;;;;15.73;8.43;;;;;;;;;;10560031;28;20574;-72
2020/12/14 22:37:47;;;;;;;13.90;8.47;;;;;;;;;;10556090;28;20301;-72
2020/12/14 22:42:48;;;;;;;15.10;9.37;;;;;;;;;;10560580;28;20218;-72
2020/12/14 22:47:50;;;;;;;18.03;10.23;;;;;;;;;;10557221;28;20199;-73
2020/12/14 22:52:52;;;;;;;18.33;9.93;;;;;;;;;;10560801;28;20223;-71
2020/12/14 22:57:53;;;;;;;15.23;8.73;;;;;;;;;;10554686;28;20215;-71
2020/12/14 23:02:55;;;;;;;13.67;8.30;;;;;;;;;;10553856;28;20242;-71
2020/12/14 23:07:57;;;;;;;14.60;8.60;;;;;;;;;;10559582;28;20311;-71
2020/12/14 23:13:00;;;;;;;15.23;8.63;;;;;;;;;;10555643;28;20211;-71
2020/12/14 23:18:03;;;;;;;15.53;8.47;;;;;;;;;;10556802;28;20202;-72
2020/12/14 23:23:05;;;;;;;20.60;11.50;;;;;;;;;;10549416;28;20275;-72
2020/12/14 23:28:07;;;;;;;19.03;9.67;;;;;;;;;;10555888;28;20194;-72
2020/12/14 23:33:08;;;;;;;18.40;9.83;;;;;;;;;;10555595;28;20241;-72
2020/12/14 23:38:10;;;;;;;23.23;13.07;;;;;;;;;;10554222;28;20203;-72
2020/12/14 23:43:12;;;;;;;26.07;13.83;;;;;;;;;;10553601;28;20242;-71
2020/12/14 23:48:13;;;;;;;23.13;12.90;;;;;;;;;;10560913;28;20216;-72
2020/12/14 23:53:16;;;;;;;23.17;12.60;;;;;;;;;;10556812;28;20215;-71
2020/12/14 23:58:17;;;;;;;22.40;11.50;;;;;;;;;;10558483;28;20202;-71
